createdAt,value
2024-01-18T00:00:44.820Z,0.00
2024-01-18T00:01:45.106Z,0.00
2024-01-18T00:02:45.446Z,0.00
2024-01-18T00:03:45.858Z,0.00
2024-01-18T00:04:46.196Z,0.00
2024-01-18T00:05:46.590Z,0.00
2024-01-18T00:06:46.873Z,0.00
2024-01-18T00:07:47.174Z,0.00
2024-01-18T00:08:47.561Z,0.00
2024-01-18T00:09:47.924Z,0.00
2024-01-18T00:10:48.216Z,0.00
2024-01-18T00:11:48.567Z,0.00
2024-01-18T00:12:48.914Z,0.00
2024-01-18T00:13:49.269Z,0.00
2024-01-18T00:14:49.607Z,0.00
2024-01-18T00:15:49.964Z,0.00
2024-01-18T00:16:50.314Z,0.00
2024-01-18T00:17:50.942Z,0.00
2024-01-18T00:18:51.182Z,0.00
2024-01-18T00:19:51.532Z,0.00
2024-01-18T00:20:51.749Z,0.00
2024-01-18T00:21:52.056Z,0.00
2024-01-18T00:22:52.467Z,0.00
2024-01-18T00:23:52.827Z,0.00
2024-01-18T00:24:53.135Z,0.00
2024-01-18T00:25:53.504Z,0.00
2024-01-18T00:26:53.924Z,0.00
2024-01-18T00:27:54.223Z,0.00
2024-01-18T00:28:54.627Z,0.00
2024-01-18T00:29:54.962Z,0.00
2024-01-18T00:30:55.308Z,0.00
2024-01-18T00:31:55.676Z,0.00
2024-01-18T00:32:56.136Z,0.00
2024-01-18T00:33:56.496Z,0.00
2024-01-18T00:34:56.753Z,0.00
2024-01-18T00:35:57.257Z,0.00
2024-01-18T00:36:57.542Z,0.00
2024-01-18T00:37:57.817Z,0.00
2024-01-18T00:38:58.216Z,0.00
2024-01-18T00:39:58.475Z,0.00
2024-01-18T00:40:58.856Z,0.00
2024-01-18T00:41:59.191Z,0.00
2024-01-18T00:42:59.557Z,0.00
2024-01-18T00:44:00.005Z,0.00
2024-01-18T00:45:00.351Z,0.00
2024-01-18T00:46:00.677Z,0.00
2024-01-18T00:47:00.950Z,0.00
2024-01-18T00:48:01.382Z,0.00
2024-01-18T00:49:01.830Z,0.00
2024-01-18T00:50:02.046Z,0.00
2024-01-18T00:51:02.449Z,0.00
2024-01-18T00:52:02.766Z,0.00
2024-01-18T00:53:03.094Z,0.00
2024-01-18T00:54:03.633Z,0.00
2024-01-18T00:55:03.785Z,0.00
2024-01-18T00:56:04.184Z,0.00
2024-01-18T00:57:04.520Z,0.00
2024-01-18T00:58:04.870Z,0.00
2024-01-18T00:59:05.307Z,0.00
2024-01-18T01:00:05.588Z,0.00
2024-01-18T01:01:05.977Z,0.00
2024-01-18T01:02:06.284Z,0.00
2024-01-18T01:03:06.729Z,0.00
2024-01-18T01:04:07.072Z,0.00
2024-01-18T01:05:07.367Z,0.00
2024-01-18T01:06:07.760Z,0.00
2024-01-18T01:07:08.073Z,0.00
2024-01-18T01:08:08.490Z,0.00
2024-01-18T01:09:08.761Z,0.00
2024-01-18T01:10:09.087Z,0.00
2024-01-18T01:11:09.395Z,0.00
2024-01-18T01:12:09.849Z,0.00
2024-01-18T01:13:10.139Z,0.00
2024-01-18T01:14:10.429Z,0.00
2024-01-18T01:15:10.867Z,0.00
2024-01-18T01:16:11.304Z,0.00
2024-01-18T01:17:11.436Z,0.00
2024-01-18T01:18:11.889Z,0.00
2024-01-18T01:19:12.238Z,0.00
2024-01-18T01:20:12.589Z,0.00
2024-01-18T01:21:12.896Z,0.00
2024-01-18T01:22:13.180Z,0.00
2024-01-18T01:23:13.548Z,0.00
2024-01-18T01:24:13.937Z,0.00
2024-01-18T01:25:14.282Z,0.00
2024-01-18T01:26:14.600Z,0.00
2024-01-18T01:27:15.014Z,0.00
2024-01-18T01:28:15.307Z,0.00
2024-01-18T01:29:15.669Z,0.00
2024-01-18T01:30:16.169Z,0.00
2024-01-18T01:31:16.396Z,0.00
2024-01-18T01:32:16.772Z,0.00
2024-01-18T01:33:17.300Z,0.00
2024-01-18T01:34:17.642Z,0.00
2024-01-18T01:35:17.816Z,0.00
2024-01-18T01:36:18.265Z,0.00
2024-01-18T01:37:18.551Z,0.00
2024-01-18T01:38:18.912Z,0.00
2024-01-18T01:39:19.355Z,0.00
2024-01-18T01:40:19.644Z,0.00
2024-01-18T01:41:19.998Z,0.00
2024-01-18T01:42:20.468Z,0.00
2024-01-18T01:43:20.740Z,0.00
2024-01-18T01:44:21.122Z,0.00
2024-01-18T01:45:21.483Z,0.00
2024-01-18T01:46:21.792Z,0.00
2024-01-18T01:47:22.194Z,0.00
2024-01-18T01:48:22.751Z,0.00
2024-01-18T01:49:23.031Z,0.00
2024-01-18T01:50:23.212Z,0.00
2024-01-18T01:51:23.592Z,0.00
2024-01-18T01:52:23.937Z,0.00
2024-01-18T01:53:24.280Z,0.00
2024-01-18T01:54:24.681Z,0.00
2024-01-18T01:55:24.964Z,0.00
2024-01-18T01:56:25.311Z,0.00
2024-01-18T01:57:25.751Z,0.00
2024-01-18T01:58:25.987Z,0.00
2024-01-18T01:59:26.404Z,0.00
2024-01-18T02:00:26.688Z,0.00
2024-01-18T02:01:27.118Z,0.00
2024-01-18T02:02:27.361Z,0.00
2024-01-18T02:03:27.757Z,0.00
2024-01-18T02:04:28.239Z,0.00
2024-01-18T02:05:28.460Z,0.00
2024-01-18T02:06:28.819Z,0.00
2024-01-18T02:07:29.174Z,0.00
2024-01-18T02:08:29.463Z,0.00
2024-01-18T02:09:29.983Z,0.00
2024-01-18T02:10:30.235Z,0.00
2024-01-18T02:11:30.530Z,0.00
2024-01-18T02:12:30.970Z,0.00
2024-01-18T02:13:31.254Z,0.00
2024-01-18T02:14:31.720Z,0.00
2024-01-18T02:15:31.986Z,0.00
2024-01-18T02:16:32.301Z,0.00
2024-01-18T02:17:32.709Z,0.00
2024-01-18T02:18:33.216Z,0.00
2024-01-18T02:19:33.520Z,0.00
2024-01-18T02:20:33.724Z,0.00
2024-01-18T02:21:34.153Z,0.00
2024-01-18T02:22:34.447Z,0.00
2024-01-18T02:23:34.781Z,0.00
2024-01-18T02:24:35.235Z,0.00
2024-01-18T02:25:35.454Z,0.00
2024-01-18T02:26:35.812Z,0.00
2024-01-18T02:27:36.267Z,0.00
2024-01-18T02:28:36.536Z,0.00
2024-01-18T02:29:36.920Z,0.00
2024-01-18T02:30:37.293Z,0.00
2024-01-18T02:31:37.627Z,0.00
2024-01-18T02:32:38.021Z,0.00
2024-01-18T02:33:38.398Z,0.00
2024-01-18T02:34:38.736Z,0.00
2024-01-18T02:35:39.037Z,0.00
2024-01-18T02:36:39.560Z,0.00
2024-01-18T02:37:39.727Z,0.00
2024-01-18T02:38:40.088Z,0.00
2024-01-18T02:39:40.565Z,0.00
2024-01-18T02:40:40.888Z,0.00
2024-01-18T02:41:41.217Z,0.00
2024-01-18T02:42:41.607Z,0.00
2024-01-18T02:43:41.907Z,0.00
2024-01-18T02:44:42.321Z,0.00
2024-01-18T02:45:42.664Z,0.00
2024-01-18T02:46:42.959Z,0.00
2024-01-18T02:47:43.342Z,0.00
2024-01-18T02:48:43.712Z,0.00
2024-01-18T02:49:44.118Z,0.00
2024-01-18T02:50:44.427Z,0.00
2024-01-18T02:51:44.781Z,0.00
2024-01-18T02:52:45.149Z,0.00
2024-01-18T02:53:45.513Z,0.00
2024-01-18T02:54:45.951Z,0.00
2024-01-18T02:55:46.269Z,0.00
2024-01-18T02:56:46.614Z,0.00
2024-01-18T02:57:47.011Z,0.00
2024-01-18T02:58:47.359Z,0.00
2024-01-18T02:59:47.711Z,0.00
2024-01-18T03:00:48.101Z,0.00
2024-01-18T03:01:48.377Z,0.00
2024-01-18T03:02:48.737Z,0.00
2024-01-18T03:03:49.150Z,0.00
2024-01-18T03:04:49.493Z,0.00
2024-01-18T03:05:49.800Z,0.00
2024-01-18T03:06:50.176Z,0.00
2024-01-18T03:07:50.545Z,0.00
2024-01-18T03:08:50.904Z,0.00
2024-01-18T03:09:51.253Z,0.00
2024-01-18T03:10:51.599Z,0.00
2024-01-18T03:11:51.938Z,0.00
2024-01-18T03:12:52.312Z,0.00
2024-01-18T03:13:52.671Z,0.00
2024-01-18T03:14:53.055Z,0.00
2024-01-18T03:15:53.382Z,0.00
2024-01-18T03:16:53.762Z,0.00
2024-01-18T03:17:54.241Z,0.00
2024-01-18T03:18:54.500Z,0.00
2024-01-18T03:19:54.854Z,0.00
2024-01-18T03:20:55.150Z,0.00
2024-01-18T03:21:55.505Z,0.00
2024-01-18T03:22:55.867Z,0.00
2024-01-18T03:23:56.263Z,0.00
2024-01-18T03:24:56.593Z,0.00
2024-01-18T03:25:56.925Z,0.00
2024-01-18T03:26:57.307Z,0.00
2024-01-18T03:27:57.676Z,0.00
2024-01-18T03:28:58.087Z,0.00
2024-01-18T03:29:58.424Z,0.00
2024-01-18T03:30:58.740Z,0.00
2024-01-18T03:31:59.097Z,0.00
2024-01-18T03:32:59.656Z,0.00
2024-01-18T03:33:59.936Z,0.00
2024-01-18T03:35:00.316Z,0.00
2024-01-18T03:36:00.611Z,0.00
2024-01-18T03:37:00.914Z,0.00
2024-01-18T03:38:01.310Z,0.00
2024-01-18T03:39:01.708Z,0.00
2024-01-18T03:40:02.052Z,0.00
2024-01-18T03:41:02.344Z,0.00
2024-01-18T03:42:02.765Z,0.00
2024-01-18T03:43:03.082Z,0.00
2024-01-18T03:44:03.432Z,0.00
2024-01-18T03:45:03.877Z,0.00
2024-01-18T03:46:04.205Z,0.00
2024-01-18T03:47:04.515Z,0.00
2024-01-18T03:48:05.042Z,0.00
2024-01-18T03:49:05.319Z,0.00
2024-01-18T03:50:05.599Z,0.00
2024-01-18T03:51:05.932Z,0.00
2024-01-18T03:52:06.312Z,0.00
2024-01-18T03:53:06.660Z,0.00
2024-01-18T03:54:07.022Z,0.00
2024-01-18T03:55:07.400Z,0.00
2024-01-18T03:56:07.692Z,0.00
2024-01-18T03:57:08.080Z,0.00
2024-01-18T03:58:08.459Z,0.00
2024-01-18T03:59:08.786Z,0.00
2024-01-18T04:00:09.202Z,0.00
2024-01-18T04:01:09.609Z,0.00
2024-01-18T04:02:09.873Z,0.00
2024-01-18T04:03:10.349Z,0.00
2024-01-18T04:04:10.623Z,0.00
2024-01-18T04:05:11.028Z,0.00
2024-01-18T04:06:11.443Z,0.00
2024-01-18T04:07:11.640Z,0.00
2024-01-18T04:08:12.007Z,0.00
2024-01-18T04:09:12.373Z,0.00
2024-01-18T04:10:12.758Z,0.00
2024-01-18T04:11:13.086Z,0.00
2024-01-18T04:12:13.446Z,0.00
2024-01-18T04:13:15.211Z,0.00
2024-01-18T04:14:14.180Z,0.00
2024-01-18T04:15:14.560Z,0.00
2024-01-18T04:16:14.854Z,0.00
2024-01-18T04:17:15.216Z,0.00
2024-01-18T04:18:15.713Z,0.00
2024-01-18T04:19:16.031Z,0.00
2024-01-18T04:20:16.307Z,0.00
2024-01-18T04:21:16.779Z,0.00
2024-01-18T04:22:16.989Z,0.00
2024-01-18T04:23:17.358Z,0.00
2024-01-18T04:24:17.735Z,0.00
2024-01-18T04:25:18.108Z,0.00
2024-01-18T04:26:18.479Z,0.00
2024-01-18T04:27:18.823Z,0.00
2024-01-18T04:28:19.159Z,0.00
2024-01-18T04:29:19.507Z,0.00
2024-01-18T04:30:19.898Z,0.00
2024-01-18T04:31:20.229Z,0.00
2024-01-18T04:32:20.586Z,0.00
2024-01-18T04:33:21.004Z,0.00
2024-01-18T04:34:21.300Z,0.00
2024-01-18T04:35:21.711Z,0.00
2024-01-18T04:36:22.039Z,0.00
2024-01-18T04:37:22.369Z,0.00
2024-01-18T04:38:22.738Z,0.00
2024-01-18T04:39:23.142Z,0.00
2024-01-18T04:40:23.494Z,0.00
2024-01-18T04:41:23.799Z,0.00
2024-01-18T04:42:24.211Z,0.00
2024-01-18T04:43:24.514Z,0.00
2024-01-18T04:44:24.874Z,0.00
2024-01-18T04:45:25.264Z,0.00
2024-01-18T04:46:25.535Z,0.00
2024-01-18T04:47:25.883Z,0.00
2024-01-18T04:48:26.275Z,0.00
2024-01-18T04:49:26.610Z,0.00
2024-01-18T04:50:26.989Z,0.00
2024-01-18T04:51:27.305Z,0.00
2024-01-18T04:52:27.665Z,0.00
2024-01-18T04:53:28.022Z,0.00
2024-01-18T04:54:28.426Z,0.00
2024-01-18T04:55:28.759Z,0.00
2024-01-18T04:56:29.093Z,0.00
2024-01-18T04:57:29.470Z,0.00
2024-01-18T04:58:29.822Z,0.00
2024-01-18T04:59:30.195Z,0.00
2024-01-18T05:00:30.686Z,0.00
2024-01-18T05:01:30.978Z,0.00
2024-01-18T05:02:31.284Z,0.00
2024-01-18T05:03:31.745Z,0.00
2024-01-18T05:04:32.166Z,0.00
2024-01-18T05:05:32.540Z,0.00
2024-01-18T05:06:32.815Z,0.00
2024-01-18T05:07:33.315Z,0.00
2024-01-18T05:08:33.463Z,0.00
2024-01-18T05:09:33.818Z,0.00
2024-01-18T05:10:34.212Z,0.00
2024-01-18T05:11:34.547Z,0.00
2024-01-18T05:12:34.907Z,0.00
2024-01-18T05:13:35.223Z,0.00
2024-01-18T05:14:35.586Z,0.00
2024-01-18T05:15:36.045Z,0.00
2024-01-18T05:16:36.309Z,0.00
2024-01-18T05:17:36.677Z,0.00
2024-01-18T05:18:37.041Z,0.00
2024-01-18T05:19:37.346Z,0.00
2024-01-18T05:20:37.740Z,0.00
2024-01-18T05:21:38.202Z,0.00
2024-01-18T05:22:38.439Z,0.00
2024-01-18T05:23:38.790Z,0.00
2024-01-18T05:24:39.221Z,0.00
2024-01-18T05:25:39.498Z,0.00
2024-01-18T05:26:39.951Z,0.00
2024-01-18T05:27:40.506Z,0.00
2024-01-18T05:28:40.541Z,0.00
2024-01-18T05:29:40.917Z,0.00
2024-01-18T05:30:41.297Z,0.00
2024-01-18T05:31:41.582Z,0.00
2024-01-18T05:32:41.944Z,0.00
2024-01-18T05:33:42.387Z,0.00
2024-01-18T05:34:42.711Z,0.00
2024-01-18T05:35:43.040Z,0.00
2024-01-18T05:36:43.395Z,0.00
2024-01-18T05:37:43.750Z,0.00
2024-01-18T05:38:44.098Z,0.00
2024-01-18T05:39:44.465Z,0.00
2024-01-18T05:40:44.788Z,0.00
2024-01-18T05:41:45.139Z,0.00
2024-01-18T05:42:45.477Z,0.00
2024-01-18T05:43:45.816Z,0.00
2024-01-18T05:44:46.207Z,0.00
2024-01-18T05:45:46.561Z,0.00
2024-01-18T05:46:46.881Z,0.00
2024-01-18T05:47:47.257Z,0.00
2024-01-18T05:48:47.615Z,0.00
2024-01-18T05:49:48.007Z,0.00
2024-01-18T05:50:48.362Z,0.00
2024-01-18T05:51:48.744Z,0.00
2024-01-18T05:52:49.054Z,0.00
2024-01-18T05:53:49.386Z,0.00
2024-01-18T05:54:49.721Z,0.00
2024-01-18T05:55:50.075Z,0.00
2024-01-18T05:56:50.390Z,0.00
2024-01-18T05:57:50.834Z,0.00
2024-01-18T05:58:51.122Z,0.00
2024-01-18T05:59:51.532Z,0.00
2024-01-18T06:00:51.976Z,0.00
2024-01-18T06:01:52.196Z,0.00
2024-01-18T06:02:52.519Z,0.00
2024-01-18T06:03:53.010Z,0.00
2024-01-18T06:04:53.252Z,0.00
2024-01-18T06:05:53.588Z,0.00
2024-01-18T06:06:54.091Z,0.00
2024-01-18T06:07:54.289Z,0.00
2024-01-18T06:08:54.661Z,0.00
2024-01-18T06:09:55.022Z,0.00
2024-01-18T06:10:55.421Z,0.00
2024-01-18T06:11:55.758Z,0.00
2024-01-18T06:12:56.078Z,0.00
2024-01-18T06:13:56.438Z,0.00
2024-01-18T06:14:56.798Z,0.00
2024-01-18T06:15:57.212Z,0.00
2024-01-18T06:16:57.505Z,0.00
2024-01-18T06:17:58.020Z,0.00
2024-01-18T06:18:58.435Z,0.00
2024-01-18T06:19:58.710Z,0.00
2024-01-18T06:20:58.969Z,0.00
2024-01-18T06:21:59.291Z,0.00
2024-01-18T06:22:59.652Z,0.00
2024-01-18T06:24:00.038Z,0.00
2024-01-18T06:25:00.360Z,0.00
2024-01-18T06:26:00.791Z,0.00
2024-01-18T06:27:01.253Z,0.00
2024-01-18T06:28:01.389Z,0.00
2024-01-18T06:29:01.747Z,0.00
2024-01-18T06:30:02.231Z,0.00
2024-01-18T06:31:02.487Z,0.00
2024-01-18T06:32:05.422Z,0.00
2024-01-18T06:33:03.282Z,0.00
2024-01-18T06:34:03.752Z,0.00
2024-01-18T06:35:03.964Z,0.00
2024-01-18T06:36:04.351Z,0.00
2024-01-18T06:37:04.650Z,0.00
2024-01-18T06:38:04.959Z,0.00
2024-01-18T06:39:05.331Z,0.00
2024-01-18T06:40:05.651Z,0.00
2024-01-18T06:41:06.034Z,0.00
2024-01-18T06:42:06.379Z,0.00
2024-01-18T06:43:06.731Z,0.00
2024-01-18T06:44:07.087Z,0.00
2024-01-18T06:45:07.474Z,0.00
2024-01-18T06:46:07.820Z,0.00
2024-01-18T06:47:10.682Z,0.00
2024-01-18T06:48:08.558Z,0.00
2024-01-18T06:49:08.926Z,0.00
2024-01-18T06:50:09.284Z,0.00
2024-01-18T06:51:09.652Z,0.00
2024-01-18T06:52:09.821Z,1.00
2024-01-18T06:53:10.084Z,1.00
2024-01-18T06:54:10.498Z,1.00
2024-01-18T06:55:10.690Z,2.00
2024-01-18T06:56:10.960Z,3.00
2024-01-18T06:57:11.241Z,2.00
2024-01-18T06:58:11.400Z,3.00
2024-01-18T06:59:11.555Z,4.00
2024-01-18T07:00:11.778Z,5.00
2024-01-18T07:01:12.099Z,6.00
2024-01-18T07:02:12.298Z,7.00
2024-01-18T07:03:12.494Z,7.00
2024-01-18T07:04:13.018Z,9.00
2024-01-18T07:05:12.987Z,10.00
2024-01-18T07:06:13.534Z,12.00
2024-01-18T07:07:13.296Z,11.00
2024-01-18T07:08:13.577Z,17.00
2024-01-18T07:09:14.006Z,19.00
2024-01-18T07:10:13.919Z,21.00
2024-01-18T07:11:14.064Z,25.00
2024-01-18T07:12:14.476Z,21.00
2024-01-18T07:13:14.540Z,31.00
2024-01-18T07:14:14.849Z,36.00
2024-01-18T07:15:15.111Z,39.00
2024-01-18T07:16:15.282Z,45.00
2024-01-18T07:17:15.578Z,47.00
2024-01-18T07:18:15.952Z,54.00
2024-01-18T07:19:16.230Z,58.00
2024-01-18T07:20:16.536Z,61.00
2024-01-18T07:21:16.826Z,67.00
2024-01-18T07:22:17.073Z,73.00
2024-01-18T07:23:17.346Z,80.00
2024-01-18T07:24:17.550Z,88.00
2024-01-18T07:25:19.595Z,96.00
2024-01-18T07:26:17.955Z,101.00
2024-01-18T07:27:18.175Z,110.00
2024-01-18T07:28:18.302Z,117.00
2024-01-18T07:29:18.490Z,125.00
2024-01-18T07:30:18.741Z,133.00
2024-01-18T07:31:18.846Z,141.00
2024-01-18T07:32:19.127Z,151.00
2024-01-18T07:33:19.425Z,161.00
2024-01-18T07:34:19.745Z,170.00
2024-01-18T07:35:19.807Z,180.00
2024-01-18T07:36:20.018Z,191.00
2024-01-18T07:37:20.174Z,202.00
2024-01-18T07:38:20.453Z,214.00
2024-01-18T07:39:20.796Z,226.00
2024-01-18T07:40:21.073Z,238.00
2024-01-18T07:41:21.335Z,251.00
2024-01-18T07:42:21.687Z,266.00
2024-01-18T07:43:21.950Z,277.00
2024-01-18T07:44:22.111Z,290.00
2024-01-18T07:45:22.462Z,303.00
2024-01-18T07:46:22.532Z,316.00
2024-01-18T07:47:22.672Z,331.00
2024-01-18T07:48:23.051Z,350.00
2024-01-18T07:49:23.159Z,371.00
2024-01-18T07:50:34.088Z,394.00
2024-01-18T07:51:23.774Z,412.00
2024-01-18T07:52:23.925Z,426.00
2024-01-18T07:53:24.208Z,439.00
2024-01-18T07:54:24.513Z,458.00
2024-01-18T07:55:24.710Z,476.00
2024-01-18T07:56:24.987Z,490.00
2024-01-18T07:57:25.177Z,502.00
2024-01-18T07:58:25.451Z,514.00
2024-01-18T07:59:25.735Z,528.00
2024-01-18T08:00:26.161Z,542.00
2024-01-18T08:01:26.246Z,557.00
2024-01-18T08:02:26.504Z,571.00
2024-01-18T08:03:26.867Z,589.00
2024-01-18T08:04:27.172Z,606.00
2024-01-18T08:05:27.425Z,620.00
2024-01-18T08:06:27.675Z,632.00
2024-01-18T08:07:27.895Z,650.00
2024-01-18T08:08:28.165Z,703.00
2024-01-18T08:09:28.368Z,764.00
2024-01-18T08:10:28.556Z,785.00
2024-01-18T08:11:28.815Z,810.00
2024-01-18T08:12:29.180Z,837.00
2024-01-18T08:13:29.251Z,853.00
2024-01-18T08:14:29.561Z,856.00
2024-01-18T08:15:29.807Z,861.00
2024-01-18T08:16:30.042Z,866.00
2024-01-18T08:17:30.308Z,875.00
2024-01-18T08:18:30.533Z,878.00
2024-01-18T08:19:30.738Z,900.00
2024-01-18T08:20:31.038Z,907.00
2024-01-18T08:21:31.197Z,930.00
2024-01-18T08:22:31.369Z,943.00
2024-01-18T08:23:31.647Z,951.00
2024-01-18T08:24:31.931Z,971.00
2024-01-18T08:25:32.098Z,990.00
2024-01-18T08:26:32.344Z,998.00
2024-01-18T08:27:32.749Z,995.00
2024-01-18T08:28:32.923Z,1014.00
2024-01-18T08:29:33.075Z,1027.00
2024-01-18T08:30:33.312Z,1034.00
2024-01-18T08:31:33.433Z,1043.00
2024-01-18T08:32:33.641Z,1064.00
2024-01-18T08:33:33.983Z,1073.00
2024-01-18T08:34:33.955Z,1078.00
2024-01-18T08:35:34.180Z,1083.00
2024-01-18T08:36:34.388Z,1091.00
2024-01-18T08:37:34.555Z,1102.00
2024-01-18T08:38:34.801Z,1122.00
2024-01-18T08:39:34.997Z,1123.00
2024-01-18T08:40:35.303Z,1140.00
2024-01-18T08:41:35.567Z,1164.00
2024-01-18T08:42:35.819Z,1200.00
2024-01-18T08:43:35.950Z,1204.00
2024-01-18T08:44:36.099Z,1202.00
2024-01-18T08:45:36.479Z,1226.00
2024-01-18T08:46:36.607Z,1232.00
2024-01-18T08:47:36.792Z,1241.00
2024-01-18T08:48:37.287Z,1240.00
2024-01-18T08:49:37.304Z,1264.00
2024-01-18T08:50:37.426Z,1271.00
2024-01-18T08:51:37.647Z,1271.00
2024-01-18T08:52:37.868Z,1289.00
2024-01-18T08:53:38.194Z,1299.00
2024-01-18T08:54:38.400Z,1320.00
2024-01-18T08:55:38.730Z,1312.00
2024-01-18T08:56:38.957Z,1309.00
2024-01-18T08:57:39.182Z,1334.00
2024-01-18T08:58:39.364Z,1336.00
2024-01-18T08:59:39.522Z,1346.00
2024-01-18T09:00:39.853Z,1360.00
2024-01-18T09:01:40.004Z,1382.00
2024-01-18T09:02:40.137Z,1402.00
2024-01-18T09:03:40.353Z,1396.00
2024-01-18T09:04:40.573Z,1404.00
2024-01-18T09:05:40.716Z,1412.00
2024-01-18T09:06:40.941Z,1437.00
2024-01-18T09:07:41.145Z,1439.00
2024-01-18T09:08:41.216Z,1457.00
2024-01-18T09:09:41.480Z,1470.00
2024-01-18T09:10:41.715Z,1483.00
2024-01-18T09:11:41.893Z,1500.00
2024-01-18T09:12:42.196Z,1493.00
2024-01-18T09:13:42.469Z,1509.00
2024-01-18T09:14:42.657Z,1533.00
2024-01-18T09:15:42.871Z,1543.00
2024-01-18T09:16:43.136Z,1549.00
2024-01-18T09:17:43.355Z,1574.00
2024-01-18T09:18:56.158Z,1580.00
2024-01-18T09:19:44.020Z,1587.00
2024-01-18T09:20:44.227Z,1594.00
2024-01-18T09:21:44.450Z,1610.00
2024-01-18T09:22:44.848Z,1612.00
2024-01-18T09:23:44.682Z,1608.00
2024-01-18T09:24:44.946Z,1622.00
2024-01-18T09:25:45.030Z,1642.00
2024-01-18T09:26:45.191Z,1639.00
2024-01-18T09:27:45.481Z,1650.00
2024-01-18T09:28:45.601Z,1651.00
2024-01-18T09:29:45.766Z,1662.00
2024-01-18T09:30:46.005Z,1666.00
2024-01-18T09:31:46.254Z,1683.00
2024-01-18T09:32:46.593Z,1700.00
2024-01-18T09:33:46.801Z,1707.00
2024-01-18T09:34:46.913Z,1712.00
2024-01-18T09:35:47.323Z,1720.00
2024-01-18T09:36:50.382Z,1710.00
2024-01-18T09:37:47.595Z,1758.00
2024-01-18T09:38:47.775Z,1725.00
2024-01-18T09:39:48.070Z,1764.00
2024-01-18T09:40:48.148Z,1778.00
2024-01-18T09:41:48.345Z,1784.00
2024-01-18T09:42:48.712Z,1787.00
2024-01-18T09:43:48.669Z,1802.00
2024-01-18T09:44:48.864Z,1761.00
2024-01-18T09:45:49.074Z,1807.00
2024-01-18T09:46:49.181Z,1811.00
2024-01-18T09:47:49.406Z,1832.00
2024-01-18T09:48:49.664Z,1786.00
2024-01-18T09:49:49.806Z,1769.00
2024-01-18T09:50:49.961Z,1799.00
2024-01-18T09:51:50.255Z,1802.00
2024-01-18T09:52:50.436Z,1815.00
2024-01-18T09:53:50.631Z,1814.00
2024-01-18T09:54:50.858Z,1837.00
2024-01-18T09:55:51.007Z,1869.00
2024-01-18T09:56:51.172Z,1868.00
2024-01-18T09:57:51.427Z,1848.00
2024-01-18T09:58:51.542Z,1848.00
2024-01-18T09:59:51.736Z,1833.00
2024-01-18T10:00:51.997Z,1852.00
2024-01-18T10:01:52.247Z,1866.00
2024-01-18T10:02:52.502Z,1873.00
2024-01-18T10:03:52.876Z,1848.00
2024-01-18T10:04:52.874Z,1894.00
2024-01-18T10:05:53.147Z,1873.00
2024-01-18T10:06:53.370Z,1870.00
2024-01-18T10:07:53.643Z,1879.00
2024-01-18T10:08:53.847Z,1891.00
2024-01-18T10:09:53.995Z,1895.00
2024-01-18T10:10:54.289Z,1930.00
2024-01-18T10:11:54.475Z,1981.00
2024-01-18T10:12:54.855Z,2062.00
2024-01-18T10:13:54.946Z,2137.00
2024-01-18T10:14:55.229Z,2259.00
2024-01-18T10:15:55.471Z,2465.00
2024-01-18T10:16:55.594Z,2664.00
2024-01-18T10:17:56.055Z,2877.00
2024-01-18T10:18:56.246Z,3040.00
2024-01-18T10:19:56.575Z,3075.00
2024-01-18T10:20:56.695Z,2970.00
2024-01-18T10:21:57.067Z,2770.00
2024-01-18T10:22:57.671Z,2463.00
2024-01-18T10:23:57.313Z,2113.00
2024-01-18T10:24:57.699Z,2114.00
2024-01-18T10:25:57.959Z,2110.00
2024-01-18T10:26:58.219Z,2065.00
2024-01-18T10:27:58.431Z,1965.00
2024-01-18T10:29:00.432Z,1857.00
2024-01-18T10:29:59.018Z,2025.00
2024-01-18T10:30:59.350Z,2052.00
2024-01-18T10:31:59.487Z,2037.00
2024-01-18T10:32:59.799Z,2028.00
2024-01-18T10:34:00.085Z,2019.00
2024-01-18T10:35:02.107Z,2018.00
2024-01-18T10:36:00.327Z,2024.00
2024-01-18T10:37:00.490Z,2016.00
2024-01-18T10:38:00.663Z,2027.00
2024-01-18T10:39:00.968Z,2023.00
2024-01-18T10:40:01.323Z,2027.00
2024-01-18T10:41:01.632Z,2030.00
2024-01-18T10:42:01.850Z,2041.00
2024-01-18T10:43:02.045Z,2033.00
2024-01-18T10:44:02.398Z,2045.00
2024-01-18T10:45:02.499Z,2055.00
2024-01-18T10:46:02.978Z,2069.00
2024-01-18T10:47:03.135Z,2103.00
2024-01-18T10:48:03.358Z,2156.00
2024-01-18T10:49:03.597Z,2225.00
2024-01-18T10:50:03.997Z,2287.00
2024-01-18T10:51:04.101Z,2391.00
2024-01-18T10:52:04.362Z,2523.00
2024-01-18T10:53:04.551Z,2679.00
2024-01-18T10:54:05.013Z,2840.00
2024-01-18T10:55:09.072Z,2987.00
2024-01-18T10:56:05.163Z,3172.00
2024-01-18T10:57:05.269Z,3386.00
2024-01-18T10:58:05.549Z,3481.00
2024-01-18T10:59:05.901Z,3542.00
2024-01-18T11:00:06.109Z,3570.00
2024-01-18T11:01:06.440Z,5256.00
2024-01-18T11:02:06.524Z,8425.00
2024-01-18T11:03:06.723Z,10414.00
2024-01-18T11:04:06.976Z,7700.00
2024-01-18T11:05:07.242Z,9884.00
2024-01-18T11:06:07.470Z,10596.00
2024-01-18T11:07:07.613Z,10508.00
2024-01-18T11:08:07.710Z,10799.00
2024-01-18T11:09:07.942Z,11097.00
2024-01-18T11:10:08.071Z,11162.00
2024-01-18T11:11:08.290Z,11550.00
2024-01-18T11:12:08.438Z,12774.00
2024-01-18T11:13:08.685Z,13096.00
2024-01-18T11:14:08.758Z,13198.00
2024-01-18T11:15:09.093Z,12536.00
2024-01-18T11:16:09.282Z,11939.00
2024-01-18T11:17:09.435Z,11525.00
2024-01-18T11:18:09.843Z,11111.00
2024-01-18T11:19:09.932Z,11487.00
2024-01-18T11:20:10.093Z,11759.00
2024-01-18T11:21:10.803Z,12308.00
2024-01-18T11:22:10.410Z,12156.00
2024-01-18T11:23:10.701Z,11388.00
2024-01-18T11:24:10.927Z,11243.00
2024-01-18T11:25:11.104Z,11546.00
2024-01-18T11:26:11.287Z,11696.00
2024-01-18T11:27:11.447Z,11613.00
2024-01-18T11:28:11.625Z,11073.00
2024-01-18T11:29:11.834Z,11125.00
2024-01-18T11:30:12.253Z,11919.00
2024-01-18T11:31:12.510Z,12397.00
2024-01-18T11:32:12.565Z,12916.00
2024-01-18T11:33:12.809Z,12801.00
2024-01-18T11:34:13.058Z,12570.00
2024-01-18T11:35:13.455Z,13024.00
2024-01-18T11:36:13.473Z,12734.00
2024-01-18T11:37:13.606Z,13574.00
2024-01-18T11:38:13.775Z,12570.00
2024-01-18T11:39:14.013Z,11734.00
2024-01-18T11:40:14.135Z,7598.00
2024-01-18T11:41:14.321Z,3759.00
2024-01-18T11:42:14.565Z,3376.00
2024-01-18T11:43:14.676Z,3343.00
2024-01-18T11:44:14.838Z,3318.00
2024-01-18T11:45:15.107Z,3262.00
2024-01-18T11:46:17.290Z,3228.00
2024-01-18T11:47:15.607Z,3179.00
2024-01-18T11:48:15.978Z,3170.00
2024-01-18T11:49:16.234Z,3571.00
2024-01-18T11:50:16.386Z,3550.00
2024-01-18T11:51:16.705Z,3631.00
2024-01-18T11:52:16.844Z,3371.00
2024-01-18T11:53:17.044Z,3031.00
2024-01-18T11:54:17.222Z,3162.00
2024-01-18T11:55:17.384Z,5381.00
2024-01-18T11:56:17.697Z,10114.00
2024-01-18T11:57:17.889Z,10942.00
2024-01-18T11:58:18.141Z,7005.00
2024-01-18T11:59:18.461Z,3735.00
2024-01-18T12:00:18.804Z,3497.00
2024-01-18T12:01:19.130Z,3559.00
2024-01-18T12:02:19.345Z,3670.00
2024-01-18T12:03:19.551Z,3759.00
2024-01-18T12:04:19.797Z,3929.00
2024-01-18T12:05:20.063Z,4201.00
2024-01-18T12:06:20.294Z,4471.00
2024-01-18T12:07:20.679Z,3818.00
2024-01-18T12:08:20.532Z,3808.00
2024-01-18T12:09:20.816Z,3526.00
2024-01-18T12:10:21.102Z,3522.00
2024-01-18T12:11:21.434Z,4377.00
2024-01-18T12:12:21.817Z,3586.00
2024-01-18T12:13:21.925Z,3144.00
2024-01-18T12:14:22.197Z,3182.00
2024-01-18T12:15:22.754Z,2599.00
2024-01-18T12:16:22.716Z,2617.00
2024-01-18T12:17:22.977Z,2639.00
2024-01-18T12:18:23.352Z,4485.00
2024-01-18T12:19:23.464Z,5163.00
2024-01-18T12:20:23.825Z,5327.00
2024-01-18T12:21:24.465Z,5194.00
2024-01-18T12:22:24.086Z,5039.00
2024-01-18T12:23:24.243Z,5239.00
2024-01-18T12:24:24.596Z,5403.00
2024-01-18T12:25:24.829Z,5389.00
2024-01-18T12:26:25.051Z,5568.00
2024-01-18T12:27:25.331Z,5272.00
2024-01-18T12:28:25.622Z,5390.00
2024-01-18T12:29:25.788Z,5143.00
2024-01-18T12:30:26.149Z,4825.00
2024-01-18T12:31:26.416Z,4225.00
2024-01-18T12:32:26.714Z,3789.00
2024-01-18T12:33:27.009Z,3658.00
2024-01-18T12:34:27.289Z,3513.00
2024-01-18T12:35:27.584Z,3317.00
2024-01-18T12:36:27.743Z,3161.00
2024-01-18T12:37:27.945Z,3056.00
2024-01-18T12:38:28.094Z,3021.00
2024-01-18T12:39:28.448Z,2831.00
2024-01-18T12:40:28.730Z,2929.00
2024-01-18T12:41:28.898Z,2952.00
2024-01-18T12:42:29.114Z,2977.00
2024-01-18T12:43:29.248Z,2989.00
2024-01-18T12:44:29.426Z,3062.00
2024-01-18T12:45:29.788Z,3180.00
2024-01-18T12:46:30.038Z,3318.00
2024-01-18T12:47:30.333Z,3446.00
2024-01-18T12:48:30.699Z,3569.00
2024-01-18T12:49:30.763Z,3759.00
2024-01-18T12:50:30.947Z,4031.00